首页
METAR-TAF:

METAR-TAF

机场 :

切尔维亚, 意大利

纬度: 44-13N, 经度: 012-18E, 海拔: 6米

当前天气观测

该预报发布于1小时和18分钟前的05:55 UTC
风速3节,风向西转西南
温度 13°C
湿度 88%
气压 1016 hPa
能見度: 2000
轻雾

METAR: LIPC 150555Z 25003KT 2000 BR NSC 13/11 Q1016 RMK SKC VIS MIN 2000 WIND THR11 /////KT WIND THR29 28003KT YLO

时间: 09:13 (07:13 UTC)

预报

该预报发布于2小时和13分钟前的05:00 UTC
预报有效从15日的 06点(UTC)到 15日的 15点(UTC)
风速4节,风向多变
能見度: 1500
少量云层高于2000英尺
轻雾
成为
从 15日的 07点(UTC)到 15日的 09点(UTC)
能見度: 5000
轻雾

TAF: LIPC 150500Z 1506/1515 VRB04KT 1500 BR FEW020 BECMG 1507/1509 5000 BR

超过4000个机场的气象观测和天气预报(METAR&TAF报告)。

可查询的气象台以黄色和红色小点在地图上表示。

将鼠标移到小点上方,可查看气象台名称。

然后点击查看天气观测和预报。

如需切换地图:点击带黑十字的绿色按钮放大地图;点击带横线的绿色按钮缩小地图;或者点击绿色箭头查看邻近地区的地图。


METAR-TAF: